Time,TemperatureF,DewpointF,PressureIn,WindDirection,WindDirectionDegrees,WindSpeedMPH,WindSpeedGustMPH,Humidity,HourlyPrecipIn,Conditions,Clouds,dailyrainin,SoftwareType,DateUTC
2013-07-18 00:02:00,80.0,71.0,30.13,ENE,65,0.0,0.0,75,0.00,,,0.00,,2013-07-18 04:02:00,
2013-07-18 00:32:00,81.0,72.0,30.13,ENE,65,0.0,0.0,73,0.00,,,0.00,,2013-07-18 04:32:00,
2013-07-18 00:43:00,81.0,71.0,30.12,ENE,65,0.0,0.0,72,0.00,,,0.00,,2013-07-18 04:43:00,
2013-07-18 00:52:00,81.0,71.0,30.12,ENE,65,0.0,0.0,71,0.00,,,0.00,,2013-07-18 04:52:00,
2013-07-18 01:02:00,81.0,71.0,30.12,ENE,65,0.0,0.0,72,0.00,,,0.00,,2013-07-18 05:02:00,
2013-07-18 01:11:00,81.0,71.0,30.12,ENE,65,0.0,0.0,72,0.00,,,0.00,,2013-07-18 05:11:00,
2013-07-18 01:22:00,80.0,71.0,30.12,ENE,65,0.0,0.0,73,0.00,,,0.00,,2013-07-18 05:22:00,
2013-07-18 01:52:00,80.0,71.0,30.12,ENE,65,0.0,0.0,73,0.00,,,0.00,,2013-07-18 05:52:00,
2013-07-18 02:01:00,80.0,71.0,30.11,ENE,65,0.0,0.0,73,0.00,,,0.00,,2013-07-18 06:01:00,
2013-07-18 02:12:00,79.0,70.0,30.11,ENE,65,0.0,0.0,74,0.00,,,0.00,,2013-07-18 06:12:00,
2013-07-18 02:22:00,79.0,70.0,30.11,ENE,65,0.0,0.0,74,0.00,,,0.00,,2013-07-18 06:22:00,
2013-07-18 02:32:00,79.0,70.0,30.11,ENE,65,0.0,0.0,74,0.00,,,0.00,,2013-07-18 06:32:00,
2013-07-18 02:43:00,78.0,70.0,30.11,ENE,65,0.0,0.0,76,0.00,,,0.00,,2013-07-18 06:43:00,
2013-07-18 02:52:00,77.0,69.0,30.11,ENE,65,0.0,0.0,77,0.00,,,0.00,,2013-07-18 06:52:00,
2013-07-18 03:12:00,76.0,69.0,30.10,ENE,65,0.0,0.0,79,0.00,,,0.00,,2013-07-18 07:12:00,
2013-07-18 03:32:00,76.0,69.0,30.10,ENE,65,0.0,0.0,80,0.00,,,0.00,,2013-07-18 07:32:00,
2013-07-18 03:42:00,76.0,70.0,30.10,ENE,65,0.0,0.0,81,0.00,,,0.00,,2013-07-18 07:42:00,
2013-07-18 03:52:00,76.0,70.0,30.10,ENE,65,0.0,0.0,81,0.00,,,0.00,,2013-07-18 07:52:00,
2013-07-18 04:01:00,76.0,70.0,30.10,ENE,65,0.0,0.0,81,0.00,,,0.00,,2013-07-18 08:01:00,
2013-07-18 04:11:00,76.0,70.0,30.10,ENE,65,0.0,0.0,81,0.00,,,0.00,,2013-07-18 08:11:00,
2013-07-18 04:21:00,76.0,70.0,30.10,ENE,65,0.0,0.0,81,0.00,,,0.00,,2013-07-18 08:21:00,
2013-07-18 04:32:00,76.0,70.0,30.10,ENE,65,0.0,0.0,81,0.00,,,0.00,,2013-07-18 08:32:00,
2013-07-18 04:51:00,75.0,69.0,30.10,ENE,65,0.0,0.0,82,0.00,,,0.00,,2013-07-18 08:51:00,
2013-07-18 05:11:00,76.0,70.0,30.10,ENE,65,0.0,0.0,82,0.00,,,0.00,,2013-07-18 09:11:00,
2013-07-18 05:21:00,76.0,70.0,30.10,ENE,65,0.0,0.0,82,0.00,,,0.00,,2013-07-18 09:21:00,
2013-07-18 05:42:00,75.0,69.0,30.11,ENE,65,0.0,0.0,82,0.00,,,0.00,,2013-07-18 09:42:00,
2013-07-18 05:51:00,75.0,69.0,30.11,ENE,65,0.0,1.0,83,0.00,,,0.00,,2013-07-18 09:51:00,
2013-07-18 06:01:00,75.0,69.0,30.11,ENE,65,0.0,2.0,82,0.00,,,0.00,,2013-07-18 10:01:00,
2013-07-18 06:11:00,75.0,69.0,30.11,ENE,65,0.0,1.0,82,0.00,,,0.00,,2013-07-18 10:11:00,
2013-07-18 06:32:00,75.0,69.0,30.11,ENE,65,0.0,1.0,82,0.00,,,0.00,,2013-07-18 10:32:00,
2013-07-18 06:52:00,75.0,69.0,30.11,ENE,73,0.0,1.0,82,0.00,,,0.00,,2013-07-18 10:52:00,
2013-07-18 07:52:00,80.0,72.0,30.12,ENE,73,0.0,0.0,78,0.00,,,0.00,,2013-07-18 11:52:00,
2013-07-18 08:02:00,80.0,72.0,30.12,ENE,73,0.0,0.0,76,0.00,,,0.00,,2013-07-18 12:02:00,
2013-07-18 08:11:00,81.0,73.0,30.12,ENE,73,0.0,0.0,76,0.00,,,0.00,,2013-07-18 12:11:00,
2013-07-18 08:22:00,81.0,73.0,30.12,ENE,73,0.0,0.0,76,0.00,,,0.00,,2013-07-18 12:22:00,
2013-07-18 08:33:00,82.0,73.0,30.12,ENE,73,0.0,1.0,74,0.00,,,0.00,,2013-07-18 12:33:00,
2013-07-18 08:52:00,83.0,73.0,30.12,ENE,73,0.0,1.0,72,0.00,,,0.00,,2013-07-18 12:52:00,
2013-07-18 09:01:00,83.0,72.0,30.12,ENE,71,2.0,4.0,70,0.00,,,0.00,,2013-07-18 13:01:00,
2013-07-18 09:43:00,86.0,74.0,30.12,ENE,78,0.0,2.0,67,0.00,,,0.00,,2013-07-18 13:43:00,
2013-07-18 10:43:00,89.0,74.0,30.12,ENE,74,1.0,5.0,61,0.00,,,0.00,,2013-07-18 14:43:00,
2013-07-18 11:01:00,89.0,76.0,30.12,NE,43,1.0,4.0,65,0.00,,,0.00,,2013-07-18 15:01:00,
2013-07-18 11:43:00,91.0,75.0,30.11,NE,42,1.0,4.0,60,0.00,,,0.00,,2013-07-18 15:43:00,
2013-07-18 11:53:00,91.0,75.0,30.11,NE,39,1.0,5.0,60,0.00,,,0.00,,2013-07-18 15:53:00,
2013-07-18 12:32:00,92.0,76.0,30.10,NNE,26,1.0,5.0,60,0.00,,,0.00,,2013-07-18 16:32:00,
2013-07-18 12:42:00,93.0,74.0,30.10,NNE,26,1.0,5.0,55,0.00,,,0.00,,2013-07-18 16:42:00,
2013-07-18 13:02:00,94.0,72.0,30.10,NNE,24,2.0,5.0,49,0.00,,,0.00,,2013-07-18 17:02:00,
2013-07-18 13:43:00,95.0,75.0,30.09,WNW,296,3.0,5.0,52,0.00,,,0.00,,2013-07-18 17:43:00,
2013-07-18 13:52:00,95.0,76.0,30.08,WNW,296,3.0,5.0,54,0.00,,,0.00,,2013-07-18 17:52:00,
2013-07-18 15:43:00,95.0,75.0,30.04,SSW,213,1.0,6.0,52,0.00,,,0.00,,2013-07-18 19:43:00,
2013-07-18 16:32:00,97.0,75.0,30.02,West,261,3.0,7.0,50,0.00,,,0.00,,2013-07-18 20:32:00,
2013-07-18 16:43:00,96.0,74.0,30.02,West,260,2.0,9.0,49,0.00,,,0.00,,2013-07-18 20:43:00,
2013-07-18 16:52:00,96.0,74.0,30.02,West,260,2.0,6.0,50,0.00,,,0.00,,2013-07-18 20:52:00,
2013-07-18 17:11:00,96.0,74.0,30.00,West,264,2.0,5.0,49,0.00,,,0.00,,2013-07-18 21:11:00,
2013-07-18 17:22:00,96.0,73.0,30.00,West,264,0.0,4.0,48,0.00,,,0.00,,2013-07-18 21:22:00,
2013-07-18 17:43:00,96.0,74.0,30.01,West,269,3.0,5.0,49,0.00,,,0.00,,2013-07-18 21:43:00,
2013-07-18 17:52:00,96.0,74.0,30.01,West,269,0.0,4.0,50,0.00,,,0.00,,2013-07-18 21:52:00,
2013-07-18 18:01:00,97.0,75.0,30.01,West,268,1.0,4.0,49,0.00,,,0.00,,2013-07-18 22:01:00,
2013-07-18 18:11:00,96.0,73.0,30.01,West,269,2.0,5.0,48,0.00,,,0.00,,2013-07-18 22:11:00,
2013-07-18 18:32:00,96.0,74.0,30.01,West,269,1.0,4.0,50,0.00,,,0.00,,2013-07-18 22:32:00,
2013-07-18 18:43:00,95.0,74.0,30.01,West,269,1.0,4.0,51,0.00,,,0.00,,2013-07-18 22:43:00,
2013-07-18 19:02:00,94.0,73.0,30.02,West,269,2.0,4.0,51,0.00,,,0.00,,2013-07-18 23:02:00,
2013-07-18 19:11:00,94.0,74.0,30.02,West,268,1.0,4.0,53,0.00,,,0.00,,2013-07-18 23:11:00,
2013-07-18 19:52:00,89.0,73.0,30.02,West,268,0.0,0.0,60,0.00,,,0.00,,2013-07-18 23:52:00,
2013-07-18 20:11:00,89.0,73.0,30.01,West,268,0.0,3.0,60,0.00,,,0.00,,2013-07-19 00:11:00,
2013-07-18 20:32:00,89.0,73.0,30.01,West,268,0.0,1.0,60,0.00,,,0.00,,2013-07-19 00:32:00,
2013-07-18 20:43:00,89.0,73.0,30.01,West,268,0.0,1.0,60,0.00,,,0.00,,2013-07-19 00:43:00,
2013-07-18 21:01:00,88.0,73.0,30.01,West,268,0.0,0.0,61,0.00,,,0.00,,2013-07-19 01:01:00,
2013-07-18 21:42:00,87.0,73.0,30.01,West,268,0.0,2.0,63,0.00,,,0.00,,2013-07-19 01:42:00,
2013-07-18 22:42:00,86.0,75.0,30.01,SW,227,2.0,5.0,69,0.00,,,0.00,,2013-07-19 02:42:00,